Time;durP1;ratioP1;P1;durP2;ratioP2;P2;SDS_P1;SDS_P2;PMS_P1;PMS_P2;Temp;Humidity;BMP_temperature;BMP_pressure;BME280_temperature;BME280_humidity;BME280_pressure;Samples;Min_cycle;Max_cycle;Signal;HPM_P1;HPM_P2
2023/01/13 00:01:52;;;;;;;11.20;2.10;;;;;8.80;100046.00;;;;9873650;30;20235;-78
2023/01/13 00:06:54;;;;;;;8.47;1.77;;;;;8.80;100055.00;;;;9869717;30;20575;-78
2023/01/13 00:11:56;;;;;;;14.50;2.10;;;;;8.80;100051.00;;;;9870043;29;20235;-78
2023/01/13 00:16:58;;;;;;;6.37;1.37;;;;;8.80;100045.00;;;;9849272;30;20711;-78
2023/01/13 00:22:00;;;;;;;9.27;2.27;;;;;8.70;100035.00;;;;9869133;30;20208;-78
2023/01/13 00:27:02;;;;;;;11.17;2.27;;;;;8.60;100035.00;;;;9851243;30;20230;-78
2023/01/13 00:32:04;;;;;;;9.07;1.90;;;;;8.50;100041.00;;;;9854091;30;20206;-78
2023/01/13 00:37:07;;;;;;;13.13;2.10;;;;;8.50;100037.00;;;;9874899;30;20247;-78
2023/01/13 00:47:29;;;;;;;11.50;2.37;;;;;8.20;100031.00;;;;9853926;30;20208;-78
2023/01/13 00:52:32;;;;;;;11.30;3.07;;;;;8.10;100031.00;;;;9870273;30;20218;-78
2023/01/13 00:57:33;;;;;;;18.97;2.87;;;;;8.00;100020.00;;;;9889188;29;20215;-78
2023/01/13 01:02:35;;;;;;;8.40;2.30;;;;;7.90;100018.00;;;;9860148;30;20214;-78
2023/01/13 01:07:37;;;;;;;14.27;2.43;;;;;7.80;100010.00;;;;9886176;30;20196;-77
2023/01/13 01:12:39;;;;;;;12.27;2.30;;;;;7.80;100017.00;;;;9865788;30;20263;-78
2023/01/13 01:17:41;;;;;;;9.87;2.40;;;;;7.80;100016.00;;;;9885455;30;20592;-77
2023/01/13 01:22:43;;;;;;;13.87;2.07;;;;;7.80;100015.00;;;;9897520;30;20231;-77
2023/01/13 01:27:45;;;;;;;9.20;2.40;;;;;7.70;100012.00;;;;9875475;30;20211;-77
2023/01/13 01:32:47;;;;;;;10.03;1.97;;;;;7.70;100014.00;;;;9875001;29;20199;-77
2023/01/13 01:37:49;;;;;;;9.83;1.33;;;;;7.70;100000.00;;;;9881653;30;20759;-77
2023/01/13 01:48:11;;;;;;;8.90;1.50;;;;;7.80;99999.00;;;;9852267;30;20642;-77
2023/01/13 01:53:17;;;;;;;13.07;1.83;;;;;7.80;100002.00;;;;9886596;30;20207;-77
2023/01/13 01:58:25;;;;;;;4.93;1.10;;;;;7.70;99985.00;;;;9872150;30;20315;-77
2023/01/13 02:03:29;;;;;;;8.83;1.67;;;;;7.70;99995.00;;;;9887778;30;20201;-77
2023/01/13 02:08:31;;;;;;;5.37;1.90;;;;;7.70;99995.00;;;;9871858;30;20575;-77
2023/01/13 02:13:33;;;;;;;7.37;1.13;;;;;7.70;99984.00;;;;9887091;30;20227;-77
2023/01/13 02:19:28;;;;;;;10.90;1.73;;;;;7.70;99979.00;;;;9887652;30;20231;-77
2023/01/13 02:25:25;;;;;;;11.03;2.00;;;;;7.80;99993.00;;;;9847778;30;20741;-77
2023/01/13 02:36:37;;;;;;;10.03;1.93;;;;;7.90;99970.00;;;;9912212;29;20298;-77
2023/01/13 02:47:21;;;;;;;15.23;2.83;;;;;8.00;99991.00;;;;9857053;30;20204;-77
2023/01/13 02:52:40;;;;;;;12.27;2.20;;;;;8.00;99977.00;;;;9864862;30;20223;-77
2023/01/13 02:57:43;;;;;;;8.97;1.60;;;;;8.10;99961.00;;;;9886064;30;20223;-77
2023/01/13 03:02:47;;;;;;;16.17;2.30;;;;;8.20;99971.00;;;;9887374;29;20199;-77
2023/01/13 03:07:52;;;;;;;14.47;2.60;;;;;8.20;100004.00;;;;9857495;30;20207;-77
2023/01/13 03:13:01;;;;;;;6.17;1.80;;;;;8.20;99990.00;;;;9871533;30;20304;-77
2023/01/13 03:18:11;;;;;;;5.23;1.43;;;;;8.20;99993.00;;;;9870971;30;20342;-77
2023/01/13 03:23:16;;;;;;;11.10;1.77;;;;;8.10;99982.00;;;;9886075;30;20660;-77
2023/01/13 03:28:28;;;;;;;10.87;1.37;;;;;8.00;99954.00;;;;9886584;30;20219;-77
2023/01/13 03:33:38;;;;;;;14.93;2.20;;;;;8.10;99974.00;;;;9858646;30;20336;-77
2023/01/13 03:38:44;;;;;;;9.30;1.77;;;;;8.10;99981.00;;;;9871141;30;20211;-77
2023/01/13 03:49:22;;;;;;;9.17;1.27;;;;;8.10;99998.00;;;;9870807;30;20224;-77
2023/01/13 03:54:28;;;;;;;7.73;1.33;;;;;7.90;99984.00;;;;9871343;30;20222;-77
2023/01/13 03:59:35;;;;;;;9.50;1.73;;;;;7.80;100011.00;;;;9870277;30;20753;-77
2023/01/13 04:04:44;;;;;;;3.90;1.00;;;;;7.80;99987.00;;;;9897761;29;20200;-77
2023/01/13 04:09:53;;;;;;;8.90;1.37;;;;;7.70;99990.00;;;;9848484;30;20577;-77
2023/01/13 04:14:55;;;;;;;5.80;1.50;;;;;7.60;99997.00;;;;9849558;30;20227;-77
2023/01/13 04:19:57;;;;;;;4.80;1.20;;;;;7.60;100012.00;;;;9876460;30;20199;-77
2023/01/13 04:24:59;;;;;;;6.23;1.40;;;;;7.60;100007.00;;;;9860367;30;20275;-77
2023/01/13 04:30:01;;;;;;;12.00;1.77;;;;;7.60;100005.00;;;;9906941;30;20214;-77
2023/01/13 04:35:04;;;;;;;4.00;1.10;;;;;7.60;100007.00;;;;9882868;30;20227;-77
2023/01/13 04:40:07;;;;;;;8.70;1.53;;;;;7.60;100002.00;;;;9863158;30;20298;-77
2023/01/13 04:45:09;;;;;;;6.77;1.30;;;;;7.60;100016.00;;;;9847143;30;20204;-77
2023/01/13 04:50:11;;;;;;;3.87;1.40;;;;;7.80;100026.00;;;;9872726;30;20217;-77
2023/01/13 04:55:14;;;;;;;6.57;1.20;;;;;7.90;100016.00;;;;9844403;30;20231;-77
2023/01/13 05:00:19;;;;;;;4.67;1.10;;;;;7.80;100020.00;;;;9891192;30;20272;-77
2023/01/13 05:05:20;;;;;;;4.77;1.20;;;;;7.70;100009.00;;;;9890400;30;20228;-77
2023/01/13 05:10:23;;;;;;;6.00;1.50;;;;;7.60;100003.00;;;;9861206;30;20262;-77
2023/01/13 05:20:45;;;;;;;2.97;0.80;;;;;7.50;100015.00;;;;9880986;30;20207;-77
2023/01/13 05:25:48;;;;;;;9.53;1.60;;;;;7.50;100006.00;;;;9884798;29;20199;-78
2023/01/13 05:30:51;;;;;;;4.70;1.07;;;;;7.50;100020.00;;;;9859387;30;20204;-77
2023/01/13 05:35:53;;;;;;;9.80;1.50;;;;;7.40;100019.00;;;;9879239;29;20215;-77
2023/01/13 05:46:18;;;;;;;9.90;1.70;;;;;7.20;100022.00;;;;9893366;30;20568;-77
2023/01/13 05:51:24;;;;;;;5.47;1.50;;;;;7.10;100034.00;;;;9860767;30;20216;-77
2023/01/13 05:56:27;;;;;;;12.17;1.57;;;;;7.10;100045.00;;;;9874781;30;20330;-77
2023/01/13 06:01:29;;;;;;;7.37;1.50;;;;;7.10;100043.00;;;;9872048;30;20668;-77
2023/01/13 06:06:31;;;;;;;11.37;1.80;;;;;7.00;100052.00;;;;9874848;30;20188;-77
2023/01/13 06:11:33;;;;;;;7.63;1.90;;;;;7.00;100059.00;;;;9873652;30;20234;-77
2023/01/13 06:16:35;;;;;;;5.00;1.53;;;;;7.00;100061.00;;;;9845215;30;20211;-77
2023/01/13 06:21:41;;;;;;;7.93;1.77;;;;;7.00;100051.00;;;;9852153;30;20236;-77
2023/01/13 06:26:43;;;;;;;8.03;1.70;;;;;7.00;100055.00;;;;9855730;29;20219;-77
2023/01/13 06:31:45;;;;;;;15.23;2.00;;;;;7.00;100057.00;;;;9874322;30;20199;-77
2023/01/13 06:36:52;;;;;;;14.67;2.47;;;;;7.00;100056.00;;;;9901122;29;20815;-77
2023/01/13 06:47:15;;;;;;;10.47;1.93;;;;;7.10;100066.00;;;;9869884;30;20294;-77
2023/01/13 06:52:18;;;;;;;12.47;2.43;;;;;7.10;100076.00;;;;9873361;30;20203;-77
2023/01/13 06:57:20;;;;;;;12.57;1.93;;;;;7.00;100078.00;;;;9844897;30;20707;-77
2023/01/13 07:02:22;;;;;;;18.77;2.13;;;;;7.00;100089.00;;;;9872345;30;20214;-78
2023/01/13 07:07:24;;;;;;;6.97;2.17;;;;;7.10;100097.00;;;;9871094;30;20203;-77
2023/01/13 07:12:25;;;;;;;19.20;3.00;;;;;7.00;100103.00;;;;9855951;30;20243;-78
2023/01/13 07:17:27;;;;;;;9.50;2.47;;;;;7.00;100095.00;;;;9886634;30;20304;-77
2023/01/13 07:22:29;;;;;;;11.57;2.53;;;;;7.00;100105.00;;;;9891083;30;20583;-77
2023/01/13 07:27:31;;;;;;;13.07;2.73;;;;;7.10;100114.00;;;;9870173;30;20207;-77
2023/01/13 07:32:33;;;;;;;21.30;3.17;;;;;7.10;100120.00;;;;9857572;29;20202;-77
2023/01/13 07:37:38;;;;;;;13.57;2.70;;;;;7.00;100131.00;;;;9871897;30;20326;-77
2023/01/13 07:48:00;;;;;;;10.60;1.90;;;;;7.00;100134.00;;;;9871185;29;20196;-77
2023/01/13 07:53:02;;;;;;;15.97;2.47;;;;;7.10;100133.00;;;;9881740;30;20242;-78
2023/01/13 07:58:04;;;;;;;14.13;2.43;;;;;7.10;100130.00;;;;9857234;30;20568;-77
2023/01/13 08:03:06;;;;;;;14.23;2.53;;;;;7.20;100140.00;;;;9869137;30;20215;-77
2023/01/13 08:08:08;;;;;;;15.07;2.90;;;;;7.30;100159.00;;;;9871090;30;20298;-77
2023/01/13 08:13:16;;;;;;;22.20;2.90;;;;;7.30;100162.00;;;;9870967;30;20236;-78
2023/01/13 08:18:21;;;;;;;17.43;2.40;;;;;7.40;100160.00;;;;9897361;29;20639;-78
2023/01/13 08:23:23;;;;;;;11.00;2.40;;;;;7.60;100171.00;;;;9837682;30;20249;-77
2023/01/13 08:28:24;;;;;;;14.93;2.50;;;;;7.70;100183.00;;;;9873973;29;20234;-77
2023/01/13 08:33:27;;;;;;;12.10;2.63;;;;;7.80;100184.00;;;;9868999;29;20675;-77
2023/01/13 08:38:30;;;;;;;18.03;2.63;;;;;7.90;100189.00;;;;9882785;29;20216;-77
2023/01/13 08:43:32;;;;;;;9.77;2.20;;;;;8.00;100200.00;;;;9866583;30;20290;-77
2023/01/13 08:48:34;;;;;;;13.70;2.40;;;;;8.10;100207.00;;;;9867297;29;20196;-77
2023/01/13 08:53:36;;;;;;;7.90;2.07;;;;;8.40;100197.00;;;;9880622;29;20227;-78
2023/01/13 08:58:39;;;;;;;12.23;2.13;;;;;8.60;100191.00;;;;9871849;30;20275;-78
2023/01/13 09:03:41;;;;;;;18.47;3.57;;;;;8.70;100205.00;;;;9867806;30;20206;-78
2023/01/13 09:08:43;;;;;;;14.43;4.30;;;;;8.80;100203.00;;;;9865767;30;20326;-76
2023/01/13 09:13:45;;;;;;;14.03;2.67;;;;;9.00;100207.00;;;;9870740;29;20773;-79
2023/01/13 09:18:47;;;;;;;12.00;2.27;;;;;9.20;100216.00;;;;9867882;29;20292;-79
2023/01/13 09:23:49;;;;;;;16.33;2.70;;;;;9.50;100207.00;;;;9864520;29;20553;-79
2023/01/13 09:28:51;;;;;;;21.67;3.10;;;;;9.80;100228.00;;;;9879082;29;20212;-79
2023/01/13 09:39:14;;;;;;;16.57;2.67;;;;;10.10;100241.00;;;;9873319;29;20246;-79
2023/01/13 09:44:23;;;;;;;16.03;2.80;;;;;10.00;100251.00;;;;9850800;29;20207;-79
2023/01/13 09:49:35;;;;;;;12.67;2.83;;;;;9.90;100263.00;;;;9889986;29;20203;-78
2023/01/13 09:54:43;;;;;;;18.30;2.77;;;;;10.10;100254.00;;;;9898217;29;20816;-79
2023/01/13 09:59:45;;;;;;;12.20;2.63;;;;;10.10;100280.00;;;;9854301;29;20219;-79
2023/01/13 10:05:21;;;;;;;10.67;2.20;;;;;10.00;100287.00;;;;9887546;29;20204;-78
2023/01/13 10:10:45;;;;;;;18.07;2.93;;;;;9.90;100291.00;;;;9882034;29;20240;-79
2023/01/13 10:16:09;;;;;;;13.33;2.80;;;;;9.90;100285.00;;;;9871037;29;20211;-79
2023/01/13 10:21:38;;;;;;;14.00;2.47;;;;;9.90;100285.00;;;;9893670;29;20451;-79
2023/01/13 10:26:53;;;;;;;19.23;2.93;;;;;9.90;100289.00;;;;9887703;29;20222;-79
2023/01/13 10:31:56;;;;;;;11.83;2.47;;;;;10.10;100291.00;;;;9873077;29;20286;-79
2023/01/13 10:37:08;;;;;;;12.80;2.80;;;;;10.30;100287.00;;;;9892167;29;20226;-79
2023/01/13 10:42:13;;;;;;;15.00;2.73;;;;;9.80;100307.00;;;;9910960;29;20672;-78
2023/01/13 10:47:30;;;;;;;11.20;2.27;;;;;9.10;100331.00;;;;9896051;29;20207;-78
2023/01/13 10:52:37;;;;;;;15.63;2.90;;;;;8.80;100331.00;;;;9861136;29;20207;-78
2023/01/13 10:57:38;;;;;;;15.00;2.83;;;;;8.60;100352.00;;;;9853053;29;20644;-78
2023/01/13 11:02:40;;;;;;;8.80;2.77;;;;;8.70;100362.00;;;;9874150;29;20625;-78
2023/01/13 11:07:53;;;;;;;10.43;2.33;;;;;8.80;100354.00;;;;9876076;29;20672;-78
2023/01/13 11:13:14;;;;;;;12.27;2.23;;;;;8.70;100352.00;;;;9886720;29;20288;-78
2023/01/13 11:18:35;;;;;;;14.90;2.50;;;;;8.50;100344.00;;;;9871828;29;20246;-78
2023/01/13 11:23:46;;;;;;;20.63;2.80;;;;;8.60;100363.00;;;;9894838;29;20203;-78
2023/01/13 11:29:30;;;;;;;16.90;3.30;;;;;8.60;100373.00;;;;9869502;29;20202;-78
2023/01/13 11:34:38;;;;;;;22.40;3.33;;;;;8.80;100376.00;;;;9858774;29;20691;-78
2023/01/13 11:39:46;;;;;;;12.80;2.87;;;;;9.00;100362.00;;;;9889838;29;20211;-78
2023/01/13 11:44:54;;;;;;;18.63;3.40;;;;;8.90;100372.00;;;;9877023;29;20584;-78
2023/01/13 11:49:57;;;;;;;13.60;2.90;;;;;9.20;100375.00;;;;9869496;29;20379;-78
2023/01/13 11:55:27;;;;;;;14.80;3.07;;;;;9.10;100387.00;;;;9866499;29;20212;-78
2023/01/13 12:00:41;;;;;;;15.67;2.90;;;;;9.20;100395.00;;;;9881622;29;20206;-79
2023/01/13 12:06:04;;;;;;;16.37;3.27;;;;;9.40;100402.00;;;;9873746;29;20199;-79
2023/01/13 12:11:18;;;;;;;15.00;4.27;;;;;9.70;100416.00;;;;9873248;29;20258;-79
2023/01/13 12:16:25;;;;;;;7.57;2.23;;;;;9.60;100401.00;;;;9900019;29;20219;-79
2023/01/13 12:21:35;;;;;;;13.63;2.37;;;;;9.50;100403.00;;;;9881931;29;20211;-79
2023/01/13 12:26:42;;;;;;;9.47;2.33;;;;;9.50;100401.00;;;;9863868;29;20253;-79
2023/01/13 12:31:47;;;;;;;16.73;2.80;;;;;9.60;100409.00;;;;9883650;29;20245;-79
2023/01/13 12:37:26;;;;;;;13.27;2.47;;;;;9.40;100425.00;;;;9869767;29;20218;-78
2023/01/13 12:47:59;;;;;;;9.47;2.77;;;;;9.50;100426.00;;;;9887228;29;20240;-79
2023/01/13 12:53:33;;;;;;;9.07;1.63;;;;;9.60;100439.00;;;;9881130;29;20196;-79
2023/01/13 12:58:35;;;;;;;11.47;1.70;;;;;9.80;100451.00;;;;9875280;29;20239;-79
2023/01/13 13:03:37;;;;;;;10.80;2.47;;;;;9.50;100458.00;;;;9879560;29;20195;-78
2023/01/13 13:08:42;;;;;;;12.93;2.03;;;;;9.10;100461.00;;;;9877424;29;20641;-79
2023/01/13 13:13:47;;;;;;;11.67;2.73;;;;;8.80;100469.00;;;;9889362;29;20226;-79
2023/01/13 13:18:49;;;;;;;10.07;2.00;;;;;8.60;100476.00;;;;9876794;29;20219;-79
2023/01/13 13:23:54;;;;;;;13.80;2.80;;;;;8.60;100476.00;;;;9868618;29;20188;-79
2023/01/13 13:29:08;;;;;;;10.40;2.27;;;;;8.80;100473.00;;;;9881226;29;20203;-79
2023/01/13 13:34:24;;;;;;;13.83;2.60;;;;;9.10;100480.00;;;;9859184;29;20207;-79
2023/01/13 13:50:19;;;;;;;10.70;2.10;;;;;9.20;100494.00;;;;9903105;29;20256;-79
2023/01/13 13:55:24;;;;;;;8.77;2.30;;;;;9.20;100501.00;;;;9886664;29;20235;-79
2023/01/13 14:00:29;;;;;;;9.63;2.47;;;;;9.30;100510.00;;;;9892986;29;20238;-80
2023/01/13 14:05:36;;;;;;;14.17;2.20;;;;;9.50;100517.00;;;;9902618;29;20204;-79
2023/01/13 14:10:42;;;;;;;11.33;1.60;;;;;9.40;100530.00;;;;9892713;29;20300;-80
2023/01/13 14:15:46;;;;;;;13.03;2.50;;;;;9.50;100538.00;;;;9861267;29;20740;-79
2023/01/13 14:20:58;;;;;;;12.90;3.13;;;;;9.40;100544.00;;;;9846544;29;20677;-80
2023/01/13 14:26:05;;;;;;;10.50;2.37;;;;;9.30;100555.00;;;;9882868;29;20223;-79
2023/01/13 14:31:09;;;;;;;13.43;1.97;;;;;9.30;100573.00;;;;9876754;29;20202;-80
2023/01/13 14:36:18;;;;;;;11.70;2.43;;;;;9.30;100579.00;;;;9881675;29;20215;-79
2023/01/13 14:41:22;;;;;;;10.37;1.93;;;;;9.40;100594.00;;;;9858352;29;20423;-79
2023/01/13 14:46:42;;;;;;;13.83;2.47;;;;;9.40;100590.00;;;;9888753;29;20829;-80
2023/01/13 14:51:44;;;;;;;14.73;2.53;;;;;9.30;100608.00;;;;9872009;29;20663;-80
2023/01/13 14:56:52;;;;;;;16.27;2.17;;;;;9.30;100608.00;;;;9868187;29;20224;-79
2023/01/13 15:01:54;;;;;;;12.67;2.23;;;;;9.20;100606.00;;;;9886355;29;20223;-79
2023/01/13 15:06:58;;;;;;;11.27;2.57;;;;;9.20;100622.00;;;;9883758;29;20195;-78
2023/01/13 15:12:38;;;;;;;5.30;1.90;;;;;9.10;100640.00;;;;9854734;29;20227;-79
2023/01/13 15:17:40;;;;;;;16.03;2.30;;;;;9.10;100647.00;;;;9871367;30;20269;-78
2023/01/13 15:22:42;;;;;;;8.50;1.70;;;;;9.10;100646.00;;;;9896118;29;20271;-79
2023/01/13 15:27:48;;;;;;;10.83;2.27;;;;;9.10;100666.00;;;;9897849;29;20668;-78
2023/01/13 15:32:55;;;;;;;7.00;2.00;;;;;9.10;100684.00;;;;9901184;29;20208;-78
2023/01/13 15:37:57;;;;;;;8.87;2.10;;;;;9.00;100689.00;;;;9894507;29;20208;-78
2023/01/13 15:48:21;;;;;;;7.63;1.40;;;;;9.00;100725.00;;;;9888779;29;20334;-78
2023/01/13 15:53:23;;;;;;;10.20;2.13;;;;;8.90;100731.00;;;;9889295;29;20216;-78
2023/01/13 15:58:28;;;;;;;12.40;2.47;;;;;8.70;100734.00;;;;9881314;29;20276;-77
2023/01/13 16:03:30;;;;;;;4.30;1.60;;;;;8.70;100725.00;;;;9868629;29;20199;-77
2023/01/13 16:08:33;;;;;;;10.37;1.90;;;;;8.60;100748.00;;;;9885751;29;20199;-78
2023/01/13 16:13:34;;;;;;;16.47;2.53;;;;;8.50;100755.00;;;;9893518;29;20238;-77
2023/01/13 16:18:36;;;;;;;5.73;1.70;;;;;8.40;100752.00;;;;9877861;29;20226;-77
2023/01/13 16:23:39;;;;;;;10.80;2.33;;;;;8.30;100755.00;;;;9886695;29;20246;-78
2023/01/13 16:28:41;;;;;;;5.97;1.87;;;;;8.20;100762.00;;;;9863878;30;20191;-78
2023/01/13 16:33:43;;;;;;;10.93;3.07;;;;;8.20;100773.00;;;;9878407;29;20868;-78
2023/01/13 16:38:46;;;;;;;10.20;2.47;;;;;8.30;100778.00;;;;9869765;29;20211;-79
2023/01/13 16:43:48;;;;;;;10.73;2.10;;;;;8.30;100793.00;;;;9864290;29;20222;-79
2023/01/13 16:48:55;;;;;;;9.60;2.67;;;;;8.30;100791.00;;;;9861963;30;20541;-79
2023/01/13 16:53:57;;;;;;;10.07;2.40;;;;;8.30;100797.00;;;;9861117;29;20202;-78
2023/01/13 16:59:12;;;;;;;11.20;3.93;;;;;8.10;100805.00;;;;9860778;29;20219;-78
2023/01/13 17:04:16;;;;;;;13.27;4.23;;;;;8.00;100822.00;;;;9876898;29;20272;-79
2023/01/13 17:09:21;;;;;;;12.07;2.40;;;;;7.80;100839.00;;;;9904133;29;20191;-78
2023/01/13 17:14:23;;;;;;;8.17;3.20;;;;;7.70;100832.00;;;;9867295;29;20224;-78
2023/01/13 17:19:26;;;;;;;16.17;3.90;;;;;7.50;100838.00;;;;9893105;29;20215;-79
2023/01/13 17:24:31;;;;;;;9.90;3.00;;;;;7.40;100853.00;;;;9865425;29;20211;-79
2023/01/13 17:29:33;;;;;;;13.90;3.27;;;;;7.30;100863.00;;;;9860454;30;20670;-79
2023/01/13 17:34:35;;;;;;;13.43;3.33;;;;;7.30;100867.00;;;;9862219;29;20215;-79
2023/01/13 17:39:36;;;;;;;9.93;2.83;;;;;7.50;100869.00;;;;9836219;30;20276;-78
2023/01/13 17:44:38;;;;;;;13.73;3.13;;;;;7.60;100871.00;;;;9865079;30;20196;-79
2023/01/13 17:49:40;;;;;;;19.50;3.60;;;;;7.80;100877.00;;;;9852714;29;20592;-79
2023/01/13 17:54:42;;;;;;;8.77;2.80;;;;;7.90;100882.00;;;;9873347;30;20210;-78
2023/01/13 17:59:46;;;;;;;12.27;3.30;;;;;7.90;100889.00;;;;9877674;29;20309;-78
2023/01/13 18:04:48;;;;;;;16.17;3.40;;;;;8.00;100907.00;;;;9885239;30;20210;-78
2023/01/13 18:09:50;;;;;;;20.63;3.17;;;;;8.00;100901.00;;;;9876481;29;20235;-78
2023/01/13 18:14:54;;;;;;;18.23;3.60;;;;;8.00;100907.00;;;;9889621;29;20215;-78
2023/01/13 18:30:37;;;;;;;19.40;3.53;;;;;8.00;100926.00;;;;9872308;30;20276;-79
2023/01/13 18:35:39;;;;;;;14.50;3.20;;;;;8.00;100915.00;;;;9886415;30;20211;-78
2023/01/13 18:40:42;;;;;;;22.90;3.20;;;;;8.10;100926.00;;;;9874589;30;20887;-78
2023/01/13 18:45:49;;;;;;;14.60;3.70;;;;;8.00;100933.00;;;;9899066;29;20207;-78
2023/01/13 18:50:50;;;;;;;14.80;4.23;;;;;8.00;100933.00;;;;9863847;30;20211;-78
2023/01/13 18:55:53;;;;;;;17.73;3.70;;;;;8.00;100945.00;;;;9892475;30;20750;-77
2023/01/13 19:01:00;;;;;;;19.77;3.63;;;;;8.00;100961.00;;;;9886650;30;20216;-78
2023/01/13 19:06:06;;;;;;;14.87;5.10;;;;;7.90;100958.00;;;;9862794;30;20223;-78
2023/01/13 19:11:08;;;;;;;18.90;3.90;;;;;7.80;100966.00;;;;9855786;29;20227;-77
2023/01/13 19:16:10;;;;;;;21.43;4.30;;;;;7.80;100974.00;;;;9851747;30;20315;-78
2023/01/13 19:21:12;;;;;;;19.53;4.83;;;;;7.80;100983.00;;;;9891344;30;20207;-78
2023/01/13 19:26:14;;;;;;;18.00;3.47;;;;;7.80;100980.00;;;;9864129;30;20199;-77
2023/01/13 19:31:19;;;;;;;19.47;4.83;;;;;7.80;100998.00;;;;9862053;30;20218;-78
2023/01/13 19:36:21;;;;;;;22.30;4.70;;;;;7.70;100985.00;;;;9872429;30;20216;-77
2023/01/13 19:46:43;;;;;;;15.57;4.50;;;;;7.40;101001.00;;;;9881755;30;20256;-78
2023/01/13 19:51:45;;;;;;;18.90;4.20;;;;;7.30;100995.00;;;;9864225;30;20671;-77
2023/01/13 19:56:51;;;;;;;16.37;4.70;;;;;7.20;101004.00;;;;9889768;30;20800;-78
2023/01/13 20:01:59;;;;;;;29.40;5.70;;;;;7.20;100999.00;;;;9869334;30;20198;-78
2023/01/13 20:07:02;;;;;;;24.70;5.10;;;;;7.10;101005.00;;;;9880257;29;20314;-78
2023/01/13 20:12:09;;;;;;;20.57;5.83;;;;;7.10;101009.00;;;;9877339;29;20238;-78
2023/01/13 20:17:13;;;;;;;20.33;4.90;;;;;7.10;101027.00;;;;9862968;30;20242;-78
2023/01/13 20:22:14;;;;;;;17.87;3.97;;;;;7.00;101022.00;;;;9875414;29;20207;-78
2023/01/13 20:27:17;;;;;;;18.93;4.30;;;;;7.00;101036.00;;;;9856396;29;20218;-78
2023/01/13 20:32:19;;;;;;;29.57;5.03;;;;;7.00;101039.00;;;;9890552;29;20633;-78
2023/01/13 20:37:21;;;;;;;23.90;6.10;;;;;7.10;101046.00;;;;9872764;30;20873;-78
2023/01/13 20:42:30;;;;;;;20.43;5.23;;;;;7.10;101050.00;;;;9874629;30;20207;-78
2023/01/13 20:47:32;;;;;;;26.60;5.17;;;;;7.00;101053.00;;;;9886757;29;20204;-78
2023/01/13 20:52:34;;;;;;;29.60;5.33;;;;;7.10;101049.00;;;;9876148;29;20681;-78
2023/01/13 20:57:36;;;;;;;16.43;3.80;;;;;7.10;101050.00;;;;9848835;29;20243;-78
2023/01/13 21:02:39;;;;;;;22.50;5.53;;;;;7.00;101058.00;;;;9897462;29;20298;-79
2023/01/13 21:07:41;;;;;;;20.50;4.00;;;;;7.00;101059.00;;;;9855956;29;20196;-78
2023/01/13 21:23:24;;;;;;;14.90;3.80;;;;;6.80;101066.00;;;;9891626;29;20199;-78
2023/01/13 21:28:26;;;;;;;15.07;3.87;;;;;6.70;101074.00;;;;9856506;29;20668;-78
2023/01/13 21:33:28;;;;;;;18.30;3.50;;;;;6.70;101060.00;;;;9890664;29;20232;-78
2023/01/13 21:38:30;;;;;;;9.63;2.80;;;;;6.60;101063.00;;;;9875344;29;20228;-78
2023/01/13 21:48:54;;;;;;;21.03;3.80;;;;;6.60;101071.00;;;;9893324;29;20272;-77
2023/01/13 21:53:56;;;;;;;22.77;5.47;;;;;6.60;101077.00;;;;9877805;29;20907;-78
2023/01/13 21:58:58;;;;;;;32.63;4.80;;;;;6.60;101082.00;;;;9873686;29;20210;-77
2023/01/13 22:04:13;;;;;;;17.47;4.00;;;;;6.50;101089.00;;;;9874783;29;20196;-77
2023/01/13 22:09:15;;;;;;;20.57;3.93;;;;;6.60;101090.00;;;;9871261;29;20260;-77
2023/01/13 22:14:18;;;;;;;18.63;4.40;;;;;6.60;101107.00;;;;9895166;29;20329;-77
2023/01/13 22:19:20;;;;;;;20.90;4.63;;;;;6.60;101090.00;;;;9891109;29;20740;-77
2023/01/13 22:24:24;;;;;;;26.40;4.70;;;;;6.70;101075.00;;;;9901567;29;20278;-77
2023/01/13 22:29:25;;;;;;;20.37;4.20;;;;;6.70;101071.00;;;;9862044;29;20203;-77
2023/01/13 22:34:27;;;;;;;18.77;4.07;;;;;6.60;101078.00;;;;9871757;29;20201;-76
2023/01/13 22:39:29;;;;;;;18.20;3.43;;;;;6.50;101081.00;;;;9868153;29;20215;-77
2023/01/13 22:44:32;;;;;;;17.67;4.43;;;;;6.40;101085.00;;;;9891809;29;20722;-77
2023/01/13 22:49:34;;;;;;;20.80;3.97;;;;;6.30;101093.00;;;;9894269;30;20208;-77
2023/01/13 22:54:36;;;;;;;22.00;4.07;;;;;6.40;101106.00;;;;9857776;29;20498;-77
2023/01/13 22:59:38;;;;;;;14.73;3.87;;;;;6.40;101099.00;;;;9889903;29;20302;-77
2023/01/13 23:04:40;;;;;;;17.40;3.00;;;;;6.40;101099.00;;;;9880141;29;20203;-77
2023/01/13 23:09:42;;;;;;;18.77;3.67;;;;;6.40;101094.00;;;;9890886;29;20214;-77
2023/01/13 23:14:44;;;;;;;24.37;4.40;;;;;6.40;101085.00;;;;9871986;30;20207;-77
2023/01/13 23:19:46;;;;;;;23.03;4.80;;;;;6.30;101078.00;;;;9855337;29;20223;-77
2023/01/13 23:24:48;;;;;;;21.67;5.43;;;;;6.30;101062.00;;;;9883911;29;20235;-77
2023/01/13 23:29:49;;;;;;;22.20;3.40;;;;;6.30;101065.00;;;;9903451;29;20196;-77
2023/01/13 23:34:51;;;;;;;19.83;4.03;;;;;6.20;101075.00;;;;9876426;29;20229;-77
2023/01/13 23:39:53;;;;;;;10.53;3.60;;;;;6.20;101080.00;;;;9895406;29;20208;-77
2023/01/13 23:44:55;;;;;;;23.50;4.53;;;;;6.10;101088.00;;;;9856314;30;20199;-77
2023/01/13 23:49:57;;;;;;;26.10;4.37;;;;;6.00;101091.00;;;;9884956;30;20185;-77
2023/01/13 23:54:59;;;;;;;21.40;3.97;;;;;6.00;101092.00;;;;9886043;30;20200;-77
